Time;durP1;ratioP1;P1;durP2;ratioP2;P2;SDS_P1;SDS_P2;PMS_P1;PMS_P2;Temp;Humidity;BMP_temperature;BMP_pressure;BME280_temperature;BME280_humidity;BME280_pressure;Samples;Min_cycle;Max_cycle;Signal;HPM_P1;HPM_P2
2021/03/31 00:01:26;;;;;;;25.55;19.60;;;;;;;9.44;74.89;101477.45;114041;1199;103248;-80
2021/03/31 00:03:53;;;;;;;22.07;18.93;;;;;;;9.42;75.20;101469.45;114005;1195;103322;-79
2021/03/31 00:06:20;;;;;;;26.73;20.73;;;;;;;9.44;75.18;101474.80;114041;1196;103270;-80
2021/03/31 00:08:47;;;;;;;23.35;20.90;;;;;;;9.38;74.91;101475.68;113961;1196;103259;-80
2021/03/31 00:11:14;;;;;;;25.80;21.20;;;;;;;9.27;74.90;101477.52;114023;1196;103238;-80
2021/03/31 00:13:40;;;;;;;23.40;18.58;;;;;;;9.30;74.87;101466.86;114015;1195;103220;-79
2021/03/31 00:16:23;;;;;;;21.07;18.60;;;;;;;9.39;74.26;101473.92;113733;1200;103153;-84
2021/03/31 00:18:50;;;;;;;21.20;18.90;;;;;;;9.34;74.52;101472.17;113704;1199;103308;-80
2021/03/31 00:21:17;;;;;;;26.88;22.23;;;;;;;9.27;74.80;101462.44;113614;1199;103121;-82
2021/03/31 00:23:44;;;;;;;22.60;19.93;;;;;;;9.30;74.70;101465.11;113518;1199;103181;-81
2021/03/31 00:26:11;;;;;;;20.93;18.67;;;;;;;9.35;74.29;101465.94;113321;1199;103306;-84
2021/03/31 00:28:38;;;;;;;23.17;18.67;;;;;;;9.39;74.45;101464.16;113345;1199;103214;-80
2021/03/31 00:31:05;;;;;;;24.38;18.83;;;;;;;9.40;74.03;101463.28;113453;1199;103763;-83
2021/03/31 00:33:32;;;;;;;24.75;17.60;;;;;;;9.38;73.47;101462.39;113402;1199;103289;-81
2021/03/31 00:35:58;;;;;;;20.93;18.70;;;;;;;9.32;73.87;101465.09;113404;1199;103262;-82
2021/03/31 00:38:25;;;;;;;21.93;19.80;;;;;;;9.26;73.97;101457.13;113518;1199;103341;-82
2021/03/31 00:40:55;;;;;;;21.90;18.70;;;;;;;9.19;74.11;101454.48;113880;1199;103292;-82
2021/03/31 00:43:22;;;;;;;21.63;18.48;;;;;;;9.22;74.18;101452.72;113920;1199;103079;-85
2021/03/31 00:45:50;;;;;;;20.17;17.57;;;;;;;9.19;74.06;101450.95;113841;1199;103383;-83
2021/03/31 00:48:17;;;;;;;21.15;17.60;;;;;;;9.11;74.54;101448.31;113887;1199;103245;-83
2021/03/31 00:50:47;;;;;;;21.95;18.05;;;;;;;9.06;74.58;101442.13;113811;1199;103267;-82
2021/03/31 00:53:19;;;;;;;20.68;18.33;;;;;;;8.98;74.25;101451.91;114019;1196;103184;-81
2021/03/31 00:55:48;;;;;;;20.30;18.15;;;;;;;8.96;74.33;101451.04;114011;1196;103268;-88
2021/03/31 00:58:15;;;;;;;19.47;17.37;;;;;;;8.93;75.00;101453.68;113973;1196;103779;-81
2021/03/31 01:00:42;;;;;;;23.75;19.43;;;;;;;8.86;75.16;101448.41;114102;1196;103495;-85
2021/03/31 01:03:09;;;;;;;22.25;19.23;;;;;;;8.75;75.30;101439.56;114203;1196;103434;-79
2021/03/31 01:05:37;;;;;;;25.43;19.55;;;;;;;8.78;75.32;101446.64;114137;1196;103238;-80
2021/03/31 01:08:04;;;;;;;20.15;16.58;;;;;;;8.79;75.30;101440.45;114119;1196;103242;-83
2021/03/31 01:10:38;;;;;;;22.45;19.03;;;;;;;8.72;75.89;101439.58;114323;1196;103523;-80
2021/03/31 01:13:47;;;;;;;23.27;19.17;;;;;;;8.66;76.15;101443.13;113855;1199;103322;-80
2021/03/31 01:16:39;;;;;;;24.97;19.93;;;;;;;8.68;76.12;101444.00;113942;1199;103200;-85
2021/03/31 01:19:15;;;;;;;21.20;18.80;;;;;;;8.67;76.39;101436.91;113805;1200;103345;-83
2021/03/31 01:22:19;;;;;;;24.33;19.10;;;;;;;8.65;76.47;101446.67;114085;1200;103812;-80
2021/03/31 01:25:21;;;;;;;26.10;20.13;;;;;;;8.68;76.71;101440.47;113974;1199;103181;-80
2021/03/31 01:28:00;;;;;;;22.23;19.87;;;;;;;8.77;76.62;101451.08;113773;1200;103220;-83
2021/03/31 01:30:41;;;;;;;26.85;19.25;;;;;;;8.80;76.07;101443.09;113746;1199;103488;-80
2021/03/31 01:33:31;;;;;;;23.00;19.75;;;;;;;8.82;76.68;101446.64;114245;1198;103065;-81
2021/03/31 01:35:58;;;;;;;26.23;21.77;;;;;;;8.78;76.53;101443.98;113789;1199;103577;-80
2021/03/31 01:38:27;;;;;;;25.35;19.83;;;;;;;8.74;76.22;101437.78;114021;1199;103109;-80
2021/03/31 01:40:55;;;;;;;21.90;19.70;;;;;;;8.74;76.62;101437.78;114066;1199;104235;-83
2021/03/31 01:43:24;;;;;;;23.40;20.78;;;;;;;8.77;76.87;101442.20;114076;1198;103292;-81
2021/03/31 01:45:54;;;;;;;26.73;20.97;;;;;;;8.75;77.31;101431.59;114012;1199;103427;-80
2021/03/31 01:48:25;;;;;;;26.08;21.43;;;;;;;8.66;77.21;101432.52;113819;1200;103111;-79
2021/03/31 01:51:08;;;;;;;23.90;20.40;;;;;;;8.72;77.30;101434.27;113861;1196;103351;-91
2021/03/31 01:53:35;;;;;;;24.13;21.67;;;;;;;8.68;76.69;101436.03;113970;1196;103207;-82
2021/03/31 01:56:03;;;;;;;24.23;20.67;;;;;;;8.63;77.40;101429.84;114001;1196;103098;-81
2021/03/31 01:58:32;;;;;;;25.70;21.30;;;;;;;8.61;77.37;101431.63;114045;1195;103082;-81
2021/03/31 02:00:59;;;;;;;23.05;19.45;;;;;;;8.58;77.48;101430.74;114019;1195;103670;-79
2021/03/31 02:03:29;;;;;;;25.27;21.20;;;;;;;8.61;77.59;101425.41;113900;1196;103274;-79
2021/03/31 02:05:56;;;;;;;23.60;20.75;;;;;;;8.62;77.50;101422.75;113809;1196;103174;-81
2021/03/31 02:08:25;;;;;;;25.60;22.03;;;;;;;8.69;76.96;101431.63;113694;1196;103136;-81
2021/03/31 02:10:52;;;;;;;24.85;21.25;;;;;;;8.71;76.94;101421.86;113595;1196;103136;-79
2021/03/31 02:13:33;;;;;;;26.20;20.40;;;;;;;8.74;76.90;101424.50;113500;1199;103360;-82
2021/03/31 02:16:02;;;;;;;25.05;20.73;;;;;;;8.81;76.75;101423.63;113377;1200;103762;-79
2021/03/31 02:18:31;;;;;;;24.25;21.77;;;;;;;8.78;76.21;101422.73;113514;1199;103217;-81
2021/03/31 02:21:13;;;;;;;25.55;21.45;;;;;;;8.66;76.85;101421.89;113323;1202;103351;-82
2021/03/31 02:23:41;;;;;;;22.57;20.00;;;;;;;8.62;76.85;101421.88;113308;1202;103152;-81
2021/03/31 02:26:10;;;;;;;24.80;21.85;;;;;;;8.62;77.11;101417.44;113370;1200;103380;-81
2021/03/31 02:28:37;;;;;;;23.88;20.45;;;;;;;8.69;76.41;101428.97;113623;1199;103219;-81
2021/03/31 02:31:05;;;;;;;20.52;18.40;;;;;;;8.70;76.40;101420.09;113578;1197;103280;-83
2021/03/31 02:33:33;;;;;;;22.18;18.83;;;;;;;8.76;76.19;101424.53;113439;1199;103293;-80
2021/03/31 02:36:16;;;;;;;25.33;21.43;;;;;;;8.72;76.23;101418.33;113464;1200;103283;-84
2021/03/31 02:38:44;;;;;;;28.18;22.40;;;;;;;8.67;75.94;101418.32;113523;1200;103404;-79
2021/03/31 02:41:12;;;;;;;24.78;21.77;;;;;;;8.64;76.38;101420.13;113714;1199;103239;-79
2021/03/31 02:43:44;;;;;;;24.67;20.90;;;;;;;8.59;76.36;101422.77;113517;1200;103763;-80
2021/03/31 02:46:16;;;;;;;24.73;19.07;;;;;;;8.60;76.29;101418.36;113888;1197;103294;-80
2021/03/31 02:48:44;;;;;;;23.48;19.90;;;;;;;8.56;76.57;101425.44;113849;1199;103361;-80
2021/03/31 02:51:12;;;;;;;23.35;19.60;;;;;;;8.55;75.91;101422.79;113940;1196;103851;-80
2021/03/31 02:53:53;;;;;;;23.17;19.33;;;;;;;8.46;76.58;101421.89;113916;1195;103235;-83
2021/03/31 02:56:39;;;;;;;24.03;21.38;;;;;;;8.30;76.56;101415.70;113991;1196;103609;-80
2021/03/31 02:59:07;;;;;;;25.68;21.68;;;;;;;8.23;77.16;101407.75;114082;1196;103197;-80
2021/03/31 03:01:36;;;;;;;24.10;21.40;;;;;;;8.24;77.42;101417.45;113876;1196;103248;-80
2021/03/31 03:04:04;;;;;;;27.70;22.37;;;;;;;8.24;77.26;101407.73;114155;1195;103182;-78
2021/03/31 03:06:31;;;;;;;30.90;20.53;;;;;;;8.22;77.28;101424.55;114025;1196;103166;-79
2021/03/31 03:09:13;;;;;;;26.63;22.33;;;;;;;8.33;77.38;101412.14;113723;1199;103169;-80
2021/03/31 03:11:40;;;;;;;25.17;22.23;;;;;;;8.41;77.25;101413.05;113972;1200;103284;-79
2021/03/31 03:14:09;;;;;;;24.85;22.08;;;;;;;8.40;76.73;101411.27;113836;1199;103303;-81
2021/03/31 03:16:36;;;;;;;28.65;23.35;;;;;;;8.37;76.73;101403.31;113681;1200;103914;-80
2021/03/31 03:19:04;;;;;;;31.70;22.87;;;;;;;8.32;76.71;101405.95;113864;1199;103271;-83
2021/03/31 03:21:31;;;;;;;25.23;22.23;;;;;;;8.30;76.98;101402.44;113620;1199;103245;-80
2021/03/31 03:23:59;;;;;;;23.48;20.75;;;;;;;8.27;76.47;101404.20;113763;1199;103399;-80
2021/03/31 03:26:26;;;;;;;24.13;20.90;;;;;;;8.26;76.81;101397.98;113771;1198;103284;-81
2021/03/31 03:28:54;;;;;;;26.50;21.65;;;;;;;8.32;76.44;101394.47;113859;1200;103558;-82
2021/03/31 03:31:21;;;;;;;24.43;21.83;;;;;;;8.34;76.39;101400.64;113867;1199;103245;-82
2021/03/31 03:34:08;;;;;;;27.95;22.15;;;;;;;8.27;76.42;101393.58;113609;1199;103399;-80
2021/03/31 03:36:51;;;;;;;22.75;19.55;;;;;;;8.30;76.55;101393.57;113594;1203;103108;-82
2021/03/31 03:39:19;;;;;;;26.90;22.60;;;;;;;8.31;76.19;101396.22;113665;1202;103207;-80
2021/03/31 03:41:47;;;;;;;22.50;20.20;;;;;;;8.29;75.76;101398.01;113697;1200;103293;-81
2021/03/31 03:44:15;;;;;;;25.83;20.45;;;;;;;8.30;76.20;101390.92;113824;1199;103656;-81
2021/03/31 03:46:43;;;;;;;28.13;21.60;;;;;;;8.24;76.15;101385.61;113962;1196;103555;-80
2021/03/31 03:49:10;;;;;;;26.05;23.05;;;;;;;8.19;76.18;101389.15;114088;1196;103076;-81
2021/03/31 03:51:37;;;;;;;25.85;22.53;;;;;;;8.10;76.31;101390.93;114193;1196;103121;-81
2021/03/31 03:54:10;;;;;;;29.80;22.47;;;;;;;8.08;76.34;101390.94;114087;1196;103398;-81
2021/03/31 03:56:38;;;;;;;30.23;21.53;;;;;;;8.08;76.19;101392.69;114132;1196;103120;-80
2021/03/31 03:59:24;;;;;;;30.23;24.20;;;;;;;8.14;76.67;101387.39;114107;1196;103248;-81
2021/03/31 04:01:52;;;;;;;25.23;21.63;;;;;;;8.11;76.79;101388.27;114093;1196;103283;-81
2021/03/31 04:04:21;;;;;;;32.18;25.98;;;;;;;8.02;76.97;101397.13;114139;1196;103137;-81
2021/03/31 04:06:48;;;;;;;31.35;25.50;;;;;;;8.04;77.51;101387.39;114196;1196;103395;-80
2021/03/31 04:09:15;;;;;;;25.40;22.35;;;;;;;8.07;76.71;101386.51;114071;1196;103210;-80
2021/03/31 04:11:44;;;;;;;28.35;24.73;;;;;;;8.02;76.72;101394.48;114008;1196;103375;-80
2021/03/31 04:14:12;;;;;;;29.43;22.67;;;;;;;8.08;76.89;101385.63;114033;1196;103216;-81
2021/03/31 04:16:41;;;;;;;29.40;22.17;;;;;;;8.02;76.62;101394.48;114062;1195;103126;-79
2021/03/31 04:19:12;;;;;;;24.75;21.20;;;;;;;8.00;76.62;101392.70;114191;1196;103104;-85
2021/03/31 04:21:43;;;;;;;29.07;25.33;;;;;;;8.02;76.67;101388.27;113939;1196;103821;-82
2021/03/31 04:24:12;;;;;;;29.17;26.03;;;;;;;8.07;76.84;101396.25;113995;1196;103225;-81
2021/03/31 04:26:39;;;;;;;30.77;27.03;;;;;;;8.06;76.73;101395.34;114064;1196;103527;-82
2021/03/31 04:29:08;;;;;;;35.35;25.40;;;;;;;8.06;77.20;101395.34;113795;1196;103132;-82
2021/03/31 04:31:38;;;;;;;31.53;25.35;;;;;;;8.05;76.97;101393.59;114041;1196;103275;-80
2021/03/31 04:34:07;;;;;;;29.60;24.20;;;;;;;8.06;77.32;101395.34;114077;1195;104065;-80
2021/03/31 04:36:34;;;;;;;29.83;24.77;;;;;;;8.03;77.05;101396.22;114097;1196;103111;-80
2021/03/31 04:39:03;;;;;;;32.50;28.00;;;;;;;8.03;77.55;101393.57;114068;1196;103211;-81
2021/03/31 04:41:31;;;;;;;32.87;26.40;;;;;;;8.07;77.69;101391.81;114210;1196;103545;-81
2021/03/31 04:43:58;;;;;;;38.17;27.93;;;;;;;8.12;77.29;101384.74;114172;1195;103535;-80
2021/03/31 04:46:25;;;;;;;34.30;27.68;;;;;;;8.15;78.13;101398.00;114065;1196;103041;-80
2021/03/31 04:48:52;;;;;;;36.55;28.50;;;;;;;8.14;77.88;101390.05;114012;1196;103136;-80
2021/03/31 04:51:18;;;;;;;32.97;28.00;;;;;;;8.22;78.51;101395.35;113982;1196;103843;-80
2021/03/31 04:53:46;;;;;;;36.08;30.10;;;;;;;8.29;78.97;101392.70;113968;1195;103184;-80
2021/03/31 04:56:13;;;;;;;38.68;30.10;;;;;;;8.35;78.93;101399.77;114352;1196;103108;-80
2021/03/31 04:58:39;;;;;;;33.70;28.30;;;;;;;8.46;79.59;101400.65;114158;1196;103303;-81
2021/03/31 05:01:06;;;;;;;37.18;30.18;;;;;;;8.52;79.82;101400.66;113879;1196;103514;-80
2021/03/31 05:03:33;;;;;;;35.53;28.28;;;;;;;8.62;79.31;101400.64;114010;1195;103200;-80
2021/03/31 05:06:00;;;;;;;41.73;32.90;;;;;;;8.61;80.28;101401.52;114117;1195;103296;-80
2021/03/31 05:08:27;;;;;;;40.14;32.68;;;;;;;8.74;80.44;101403.25;113922;1196;103151;-80
2021/03/31 05:10:53;;;;;;;44.10;33.25;;;;;;;8.84;80.85;101398.83;113977;1196;103129;-81
2021/03/31 05:13:34;;;;;;;43.23;32.00;;;;;;;8.96;80.75;101400.56;114057;1196;103316;-80
2021/03/31 05:16:16;;;;;;;39.63;32.30;;;;;;;9.06;81.25;101399.61;114009;1196;103286;-80
2021/03/31 05:18:43;;;;;;;46.43;34.03;;;;;;;9.15;81.46;101410.20;114181;1195;103088;-80
2021/03/31 05:21:24;;;;;;;43.45;34.95;;;;;;;9.28;81.15;101404.86;114078;1196;103198;-81
2021/03/31 05:23:51;;;;;;;43.50;32.03;;;;;;;9.41;81.09;101414.54;113972;1196;103085;-79
2021/03/31 05:26:18;;;;;;;37.88;31.68;;;;;;;9.56;80.85;101412.66;113963;1196;103241;-81
2021/03/31 05:28:44;;;;;;;40.48;32.58;;;;;;;9.70;80.70;101413.47;113887;1196;103092;-80
2021/03/31 05:31:11;;;;;;;41.87;34.63;;;;;;;9.77;80.37;101415.21;114327;1196;103108;-84
2021/03/31 05:33:38;;;;;;;45.93;33.07;;;;;;;9.84;80.03;101411.60;114208;1196;103179;-80
2021/03/31 05:36:05;;;;;;;43.88;34.15;;;;;;;9.93;79.94;101413.33;114100;1196;103092;-82
2021/03/31 05:38:32;;;;;;;42.70;32.38;;;;;;;10.01;79.85;101407.95;114126;1196;103226;-80
2021/03/31 05:40:59;;;;;;;40.98;31.70;;;;;;;10.18;79.59;101406.03;114157;1196;103190;-80
2021/03/31 05:43:26;;;;;;;47.95;34.75;;;;;;;10.34;79.59;101404.13;114205;1196;103156;-80
2021/03/31 05:45:55;;;;;;;41.53;32.03;;;;;;;10.50;79.05;101406.66;113955;1196;103094;-80
2021/03/31 05:48:23;;;;;;;49.50;31.03;;;;;;;10.65;78.74;101411.84;113934;1196;103354;-86
2021/03/31 05:50:49;;;;;;;42.05;34.20;;;;;;;10.75;78.33;101412.61;114022;1196;103283;-80
2021/03/31 05:53:16;;;;;;;48.67;33.17;;;;;;;10.88;78.18;101413.38;113998;1196;103252;-82
2021/03/31 05:55:44;;;;;;;41.50;33.43;;;;;;;11.05;77.67;101410.52;114115;1196;103088;-80
2021/03/31 05:58:10;;;;;;;46.15;34.15;;;;;;;11.20;77.68;101409.44;114137;1196;103270;-81
2021/03/31 06:00:38;;;;;;;45.33;34.60;;;;;;;11.27;77.54;101415.58;113953;1196;103188;-80
2021/03/31 06:03:05;;;;;;;42.63;33.67;;;;;;;11.23;77.35;101409.39;113910;1196;103185;-80
2021/03/31 06:05:32;;;;;;;39.43;33.50;;;;;;;11.29;77.40;101406.66;113891;1196;103385;-82
2021/03/31 06:08:05;;;;;;;41.13;31.15;;;;;;;11.37;77.35;101412.77;113736;1196;103207;-82
2021/03/31 06:10:32;;;;;;;45.67;33.97;;;;;;;11.42;77.24;101407.35;114161;1196;103219;-82
2021/03/31 06:13:14;;;;;;;41.90;32.75;;;;;;;11.47;77.65;101402.84;114160;1196;103069;-81
2021/03/31 06:15:44;;;;;;;39.80;34.00;;;;;;;11.42;77.31;101407.35;114620;1195;103050;-79
2021/03/31 06:18:16;;;;;;;40.83;34.43;;;;;;;11.53;77.49;101400.09;113848;1196;103242;-86
2021/03/31 06:21:05;;;;;;;42.40;34.63;;;;;;;11.65;77.19;101399.05;113815;1196;103193;-79
2021/03/31 06:26:29;;;;;;;42.33;32.75;;;;;;;11.75;77.09;101394.44;113849;1198;103366;-80
2021/03/31 06:29:03;;;;;;;41.35;35.53;;;;;;;11.82;77.20;101401.47;113758;1199;103280;-83
2021/03/31 06:31:49;;;;;;;41.80;34.18;;;;;;;11.98;77.05;101403.91;113714;1198;103385;-83
2021/03/31 06:34:27;;;;;;;43.15;34.93;;;;;;;12.09;76.78;101396.63;113851;1198;103362;-79
2021/03/31 06:37:00;;;;;;;44.67;33.93;;;;;;;12.16;76.54;101398.27;113755;1200;103456;-85
2021/03/31 06:39:31;;;;;;;39.23;32.58;;;;;;;12.21;76.30;101393.73;113995;1200;103661;-79
2021/03/31 06:42:01;;;;;;;36.83;32.55;;;;;;;12.31;76.36;101396.25;113629;1199;103216;-81
2021/03/31 06:44:56;;;;;;;37.15;31.98;;;;;;;12.45;76.27;101396.89;113733;1199;103239;-81
2021/03/31 06:50:11;;;;;;;37.55;29.53;;;;;;;12.56;75.42;101401.16;113821;1199;103274;-80
2021/03/31 06:52:56;;;;;;;41.75;31.30;;;;;;;12.60;75.65;101393.05;114518;1198;103100;-82
2021/03/31 06:55:25;;;;;;;36.85;31.33;;;;;;;12.65;74.68;101390.30;114289;1198;103290;-81
2021/03/31 06:57:56;;;;;;;43.40;35.60;;;;;;;12.74;74.69;101387.42;114110;1199;104477;-82
2021/03/31 07:00:28;;;;;;;46.28;34.65;;;;;;;12.84;74.75;101386.34;114070;1199;103233;-80
2021/03/31 07:03:03;;;;;;;38.43;31.95;;;;;;;12.98;74.03;101383.41;113793;1200;103318;-81
2021/03/31 07:05:40;;;;;;;38.17;29.07;;;;;;;13.02;73.98;101374.41;114018;1196;103261;-80
2021/03/31 07:08:12;;;;;;;39.30;28.60;;;;;;;13.12;73.60;101379.56;114025;1196;103095;-81
2021/03/31 07:10:44;;;;;;;35.43;30.63;;;;;;;13.18;73.69;101376.73;113965;1196;103299;-80
2021/03/31 07:13:29;;;;;;;40.67;30.47;;;;;;;13.25;73.31;101380.16;114156;1196;103277;-83
2021/03/31 07:15:58;;;;;;;37.60;30.28;;;;;;;13.36;73.14;101379.05;114141;1196;104173;-81
2021/03/31 07:18:27;;;;;;;36.40;31.75;;;;;;;13.45;73.39;101374.39;114028;1196;103800;-80
2021/03/31 07:20:55;;;;;;;40.35;31.53;;;;;;;13.49;72.74;101366.28;113929;1196;103197;-80
2021/03/31 07:23:26;;;;;;;38.90;29.87;;;;;;;13.51;72.49;101390.33;113944;1196;103203;-86
2021/03/31 07:25:58;;;;;;;40.17;32.40;;;;;;;13.62;72.81;101376.69;113952;1196;103153;-81
2021/03/31 07:28:32;;;;;;;36.67;30.80;;;;;;;13.60;72.05;101357.13;113958;1196;103132;-79
2021/03/31 07:31:03;;;;;;;36.80;30.45;;;;;;;13.73;72.23;101381.79;113908;1196;103092;-80
2021/03/31 07:33:38;;;;;;;37.97;28.77;;;;;;;13.78;71.80;101382.56;113908;1196;103491;-81
2021/03/31 07:36:14;;;;;;;38.37;31.43;;;;;;;13.89;71.63;101375.17;113998;1196;103116;-82
2021/03/31 07:38:53;;;;;;;38.33;30.50;;;;;;;14.00;71.41;101369.55;113994;1196;103050;-83
2021/03/31 07:41:22;;;;;;;37.58;29.93;;;;;;;14.03;71.01;101372.13;113865;1196;103303;-80
2021/03/31 07:43:56;;;;;;;40.70;31.50;;;;;;;14.04;71.24;101368.55;114034;1196;103242;-79
2021/03/31 07:46:30;;;;;;;35.80;27.57;;;;;;;14.05;70.75;101367.63;114026;1196;103092;-82
2021/03/31 07:49:00;;;;;;;35.83;27.43;;;;;;;14.08;70.48;101372.91;113961;1196;103155;-85
2021/03/31 07:51:31;;;;;;;35.90;26.80;;;;;;;14.12;70.38;101363.00;113945;1195;103886;-84
2021/03/31 07:54:02;;;;;;;32.93;27.17;;;;;;;14.21;70.15;101365.44;113956;1196;103347;-82
2021/03/31 07:56:31;;;;;;;37.20;27.15;;;;;;;14.27;69.99;101378.66;113968;1196;103130;-83
2021/03/31 07:59:08;;;;;;;40.43;27.07;;;;;;;14.35;69.79;101365.97;113872;1196;103181;-79
2021/03/31 08:01:43;;;;;;;31.90;25.75;;;;;;;14.50;69.38;101361.98;114091;1196;103233;-81
2021/03/31 08:04:12;;;;;;;34.40;27.45;;;;;;;14.61;69.74;101363.47;114055;1196;103235;-81
2021/03/31 08:06:42;;;;;;;34.03;26.60;;;;;;;14.68;68.98;101370.47;114027;1196;103178;-82
2021/03/31 08:09:29;;;;;;;38.50;29.50;;;;;;;14.77;68.60;101370.22;114138;1196;103188;-85
2021/03/31 08:12:05;;;;;;;35.15;27.35;;;;;;;14.88;68.37;101369.91;113937;1196;103565;-84
2021/03/31 08:14:42;;;;;;;34.67;28.50;;;;;;;15.04;67.99;101373.89;113985;1196;103265;-82
2021/03/31 08:17:30;;;;;;;43.37;31.63;;;;;;;15.20;68.00;101371.63;114022;1196;103018;-86
2021/03/31 08:19:57;;;;;;;34.57;27.97;;;;;;;15.36;67.13;101373.86;114019;1196;103208;-82
2021/03/31 08:22:35;;;;;;;34.90;23.00;;;;;;;15.50;66.44;101368.95;114030;1196;103092;-80
2021/03/31 08:25:18;;;;;;;32.83;23.00;;;;;;;15.64;66.76;101364.95;114156;1196;103688;-80
2021/03/31 08:28:05;;;;;;;33.63;27.60;;;;;;;15.74;65.23;101366.42;114001;1196;103268;-79
2021/03/31 08:30:46;;;;;;;33.80;26.50;;;;;;;15.77;65.42;101365.41;113761;1200;103481;-79
2021/03/31 08:33:12;;;;;;;30.13;24.48;;;;;;;15.82;64.85;101368.86;113845;1199;103110;-81
2021/03/31 08:35:43;;;;;;;33.60;26.33;;;;;;;15.88;65.47;101365.98;114004;1196;103194;-84
2021/03/31 08:38:28;;;;;;;35.68;27.63;;;;;;;16.04;64.65;101361.84;114010;1196;103092;-79
2021/03/31 08:40:55;;;;;;;33.87;22.50;;;;;;;16.02;63.99;101352.98;113959;1196;103329;-82
2021/03/31 08:43:36;;;;;;;25.50;22.50;;;;;;;16.17;64.56;101358.77;113661;1200;103829;-80
2021/03/31 08:46:04;;;;;;;27.20;22.73;;;;;;;16.31;64.05;101355.58;113753;1199;103185;-84
2021/03/31 08:48:47;;;;;;;28.80;21.00;;;;;;;16.43;63.21;101363.20;113758;1199;103150;-84
2021/03/31 08:51:18;;;;;;;29.33;20.70;;;;;;;16.65;62.09;101354.39;113826;1199;103259;-82
2021/03/31 08:53:45;;;;;;;27.27;19.60;;;;;;;16.90;61.78;101359.78;114201;1200;103376;-81
2021/03/31 08:56:26;;;;;;;38.90;20.63;;;;;;;17.05;60.89;101355.63;113683;1200;103663;-83
2021/03/31 08:59:08;;;;;;;29.23;22.18;;;;;;;17.18;60.79;101356.02;113695;1199;103296;-80
2021/03/31 09:01:35;;;;;;;25.15;19.28;;;;;;;17.30;59.66;101360.05;113730;1200;103432;-83
2021/03/31 09:04:22;;;;;;;21.20;18.95;;;;;;;17.38;59.44;101353.44;113593;1200;103114;-80
2021/03/31 09:06:49;;;;;;;19.95;15.95;;;;;;;17.47;59.24;101354.00;113681;1200;103239;-81
2021/03/31 09:09:38;;;;;;;24.30;19.50;;;;;;;17.72;58.16;101349.36;113448;1202;103322;-82
2021/03/31 09:12:18;;;;;;;20.13;16.10;;;;;;;17.94;58.74;101343.14;113695;1200;103718;-88
2021/03/31 09:14:47;;;;;;;19.50;12.90;;;;;;;17.99;56.51;101343.83;113726;1200;103315;-81
2021/03/31 09:17:28;;;;;;;20.57;15.53;;;;;;;18.08;56.01;101341.67;113539;1200;103235;-82
2021/03/31 09:19:57;;;;;;;21.05;15.60;;;;;;;18.28;56.01;101338.12;113434;1203;104783;-80
2021/03/31 09:22:29;;;;;;;24.10;15.10;;;;;;;19.71;53.31;101338.70;113767;1196;103163;-79
2021/03/31 09:25:01;;;;;;;18.95;14.38;;;;;;;21.52;49.01;101337.28;113791;1196;103475;-84
2021/03/31 09:27:51;;;;;;;19.15;13.73;;;;;;;23.07;46.76;101331.59;113857;1196;103229;-80
2021/03/31 09:30:18;;;;;;;15.95;13.45;;;;;;;24.47;43.25;101320.52;113818;1196;103191;-84
2021/03/31 09:32:59;;;;;;;17.85;12.85;;;;;;;25.78;42.04;101321.05;113716;1196;103168;-84
2021/03/31 09:35:28;;;;;;;16.25;11.95;;;;;;;27.15;38.23;101315.80;113861;1196;103120;-80
2021/03/31 09:38:15;;;;;;;16.70;13.83;;;;;;;28.47;35.76;101304.73;113872;1196;103948;-81
2021/03/31 09:41:04;;;;;;;14.68;11.30;;;;;;;29.25;33.86;101307.84;114327;1196;103127;-85
2021/03/31 09:43:49;;;;;;;16.03;11.85;;;;;;;29.96;30.53;101308.71;113676;1199;103370;-80
2021/03/31 09:46:23;;;;;;;14.07;9.87;;;;;;;30.53;31.04;101300.55;113841;1199;103376;-81
2021/03/31 09:48:51;;;;;;;15.90;11.85;;;;;;;31.45;29.98;101298.82;113894;1199;103127;-82
2021/03/31 09:51:19;;;;;;;16.47;11.70;;;;;;;32.29;29.12;101298.61;113825;1198;103690;-83
2021/03/31 09:53:51;;;;;;;12.08;10.10;;;;;;;32.43;27.01;101291.63;113867;1199;103402;-81
2021/03/31 09:56:19;;;;;;;11.83;10.40;;;;;;;32.65;28.06;101285.55;113898;1199;103143;-85
2021/03/31 09:58:48;;;;;;;12.70;9.53;;;;;;;32.68;26.74;101285.24;113931;1200;103131;-84
2021/03/31 10:01:16;;;;;;;9.45;8.33;;;;;;;32.48;26.56;101286.48;113816;1198;103313;-85
2021/03/31 10:03:44;;;;;;;11.40;8.93;;;;;;;32.98;26.32;101280.23;114028;1199;103657;-83
2021/03/31 10:06:24;;;;;;;19.60;10.15;;;;;;;33.05;25.09;101280.42;114379;1200;103213;-83
2021/03/31 10:08:56;;;;;;;12.43;9.20;;;;;;;33.70;24.94;101278.88;113976;1198;103329;-85
2021/03/31 10:11:38;;;;;;;11.78;8.53;;;;;;;34.27;24.55;101271.62;114105;1200;103987;-82
2021/03/31 10:14:28;;;;;;;15.53;9.70;;;;;;;34.28;23.55;101265.06;114390;1199;103302;-82
2021/03/31 10:16:55;;;;;;;14.13;8.38;;;;;;;34.38;22.85;101268.53;114330;1198;103251;-83
2021/03/31 10:19:29;;;;;;;11.73;8.03;;;;;;;34.62;22.95;101267.59;114037;1199;103168;-83
2021/03/31 10:22:09;;;;;;;9.70;7.68;;;;;;;34.68;22.88;101262.40;114206;1196;103182;-83
2021/03/31 10:25:06;;;;;;;9.10;7.00;;;;;;;35.03;21.69;101262.96;114227;1196;103197;-87
2021/03/31 10:27:59;;;;;;;8.23;5.95;;;;;;;35.31;20.48;101263.34;114347;1196;103225;-89
2021/03/31 10:30:47;;;;;;;9.18;7.15;;;;;;;35.31;22.06;101260.58;114469;1196;103410;-82
2021/03/31 10:33:36;;;;;;;8.58;6.45;;;;;;;35.42;20.37;101251.86;115982;1196;102996;-83
2021/03/31 10:36:08;;;;;;;8.98;6.45;;;;;;;35.52;20.30;101240.52;115641;1196;103085;-80
2021/03/31 10:38:55;;;;;;;7.50;6.37;;;;;;;35.76;21.61;101246.92;115819;1196;103114;-89
2021/03/31 10:47:04;;;;;;;9.87;7.67;;;;;;;36.29;20.22;101244.20;114482;1196;103388;-83
2021/03/31 10:49:49;;;;;;;10.27;8.20;;;;;;;36.43;20.33;101240.61;114067;1196;103229;-81
2021/03/31 10:52:28;;;;;;;9.53;7.53;;;;;;;35.40;21.60;101233.70;114067;1196;103088;-80
2021/03/31 10:54:58;;;;;;;8.80;7.55;;;;;;;33.37;22.53;101237.41;114004;1196;103273;-81
2021/03/31 10:57:30;;;;;;;11.40;8.55;;;;;;;31.45;25.15;101231.89;114034;1196;103118;-80
2021/03/31 11:00:01;;;;;;;10.47;9.37;;;;;;;30.30;27.58;101226.66;114060;1195;103137;-80
2021/03/31 11:02:35;;;;;;;13.63;9.47;;;;;;;29.11;28.14;101228.69;113887;1196;103167;-79
2021/03/31 11:05:08;;;;;;;15.43;8.93;;;;;;;27.79;29.92;101221.11;113786;1196;103137;-81
2021/03/31 11:07:46;;;;;;;9.53;8.20;;;;;;;26.69;31.80;101223.86;113943;1195;103673;-80
2021/03/31 11:10:16;;;;;;;9.00;7.50;;;;;;;26.02;33.40;101220.06;113820;1196;103596;-81
2021/03/31 11:12:59;;;;;;;9.87;8.43;;;;;;;25.30;34.67;101212.83;113895;1196;103035;-84
2021/03/31 11:15:40;;;;;;;13.27;9.60;;;;;;;24.57;36.27;101211.83;113879;1196;103187;-79
2021/03/31 11:18:24;;;;;;;10.40;9.33;;;;;;;24.03;37.24;101213.78;113951;1195;103230;-79
2021/03/31 11:26:41;;;;;;;10.60;9.48;;;;;;;22.47;41.19;101205.97;113858;1195;103124;-86
2021/03/31 11:29:10;;;;;;;13.70;9.97;;;;;;;22.20;42.04;101195.82;113927;1195;103680;-83
2021/03/31 11:31:40;;;;;;;10.80;9.35;;;;;;;21.80;41.20;101181.16;113884;1196;103581;-79
2021/03/31 11:34:07;;;;;;;12.50;8.70;;;;;;;21.65;42.63;101200.09;114078;1196;103137;-80
2021/03/31 11:36:40;;;;;;;11.55;10.05;;;;;;;21.47;42.73;101191.22;114131;1196;103179;-80
2021/03/31 11:39:18;;;;;;;14.10;11.50;;;;;;;21.23;43.75;101193.52;114050;1196;103108;-79
2021/03/31 11:41:56;;;;;;;11.95;10.63;;;;;;;21.08;44.79;101180.88;113938;1195;103114;-83